createdAt,value
2022-10-20T00:00:56.069Z,16.70
2022-10-20T00:03:23.798Z,10.87
2022-10-20T00:05:51.531Z,19.20
2022-10-20T00:08:19.111Z,10.67
2022-10-20T00:10:54.124Z,9.67
2022-10-20T00:13:21.795Z,11.23
2022-10-20T00:15:50.608Z,11.13
2022-10-20T00:18:19.816Z,8.27
2022-10-20T00:20:47.570Z,11.50
2022-10-20T00:23:15.170Z,9.17
2022-10-20T00:25:42.737Z,10.03
2022-10-20T00:28:10.396Z,13.77
2022-10-20T00:30:38.246Z,13.57
2022-10-20T00:33:06.513Z,11.67
2022-10-20T00:35:39.225Z,12.60
2022-10-20T00:38:06.961Z,12.77
2022-10-20T00:40:34.481Z,11.07
2022-10-20T00:43:02.222Z,9.90
2022-10-20T00:45:29.687Z,11.67
2022-10-20T00:47:59.737Z,8.97
2022-10-20T00:50:29.233Z,13.23
2022-10-20T00:52:58.652Z,8.97
2022-10-20T00:55:28.689Z,12.37
2022-10-20T00:57:57.641Z,9.27
2022-10-20T01:00:25.927Z,13.57
2022-10-20T01:02:54.425Z,11.23
2022-10-20T01:05:22.639Z,9.20
2022-10-20T01:07:50.130Z,11.40
2022-10-20T01:10:19.968Z,10.63
2022-10-20T01:12:53.543Z,15.13
2022-10-20T01:15:26.067Z,13.93
2022-10-20T01:18:02.101Z,9.73
2022-10-20T01:20:52.104Z,14.73
2022-10-20T01:23:54.857Z,12.07
2022-10-20T01:26:49.328Z,11.97
2022-10-20T01:29:23.752Z,7.80
2022-10-20T01:31:56.932Z,8.13
2022-10-20T01:34:29.234Z,14.80
2022-10-20T01:37:00.325Z,10.77
2022-10-20T01:39:31.747Z,11.17
2022-10-20T01:42:02.578Z,15.57
2022-10-20T01:44:32.600Z,10.60
2022-10-20T01:47:01.320Z,12.47
2022-10-20T01:49:29.036Z,10.90
2022-10-20T01:51:57.226Z,12.60
2022-10-20T01:54:26.491Z,10.17
2022-10-20T01:57:03.740Z,10.97
2022-10-20T01:59:43.850Z,8.97
2022-10-20T02:02:20.664Z,9.37
2022-10-20T02:05:01.210Z,10.67
2022-10-20T02:07:30.702Z,14.00
2022-10-20T02:10:04.790Z,10.70
2022-10-20T02:12:36.388Z,16.00
2022-10-20T02:15:07.515Z,12.53
2022-10-20T02:17:36.114Z,10.60
2022-10-20T02:20:06.914Z,11.20
2022-10-20T02:22:35.338Z,14.17
2022-10-20T02:25:03.123Z,12.90
2022-10-20T02:27:33.785Z,12.07
2022-10-20T02:30:03.744Z,8.50
2022-10-20T02:32:34.276Z,10.90
2022-10-20T02:35:06.784Z,9.50
2022-10-20T02:37:35.187Z,11.83
2022-10-20T02:40:03.302Z,14.73
2022-10-20T02:42:31.174Z,11.73
2022-10-20T02:44:58.948Z,11.63
2022-10-20T02:47:26.681Z,11.90
2022-10-20T02:49:55.730Z,10.80
2022-10-20T02:52:23.236Z,13.20
2022-10-20T02:54:51.021Z,10.27
2022-10-20T02:57:18.612Z,12.20
2022-10-20T02:59:46.150Z,12.93
2022-10-20T03:02:13.788Z,16.57
2022-10-20T03:04:41.381Z,19.70
2022-10-20T03:07:10.231Z,11.93
2022-10-20T03:09:37.827Z,11.50
2022-10-20T03:12:05.973Z,13.17
2022-10-20T03:14:33.463Z,9.30
2022-10-20T03:17:01.002Z,12.30
2022-10-20T03:19:28.454Z,8.47
2022-10-20T03:21:55.957Z,11.23
2022-10-20T03:24:24.782Z,10.37
2022-10-20T03:26:52.406Z,10.40
2022-10-20T03:29:20.108Z,12.63
2022-10-20T03:34:15.156Z,9.23
2022-10-20T03:36:42.722Z,8.87
2022-10-20T03:39:10.269Z,6.77
2022-10-20T03:41:39.126Z,9.40
2022-10-20T03:44:06.728Z,9.63
2022-10-20T03:46:34.385Z,10.50
2022-10-20T03:49:01.942Z,7.27
2022-10-20T03:51:29.519Z,6.07
2022-10-20T03:53:57.212Z,6.70
2022-10-20T03:56:25.024Z,10.20
2022-10-20T03:58:54.072Z,8.23
2022-10-20T04:01:32.239Z,8.10
2022-10-20T04:04:00.273Z,10.63
2022-10-20T04:06:27.857Z,11.10
2022-10-20T04:08:55.475Z,6.90
2022-10-20T04:11:23.974Z,12.93
2022-10-20T04:13:51.662Z,9.07
2022-10-20T04:16:20.793Z,8.73
2022-10-20T04:18:48.654Z,5.97
2022-10-20T04:21:16.234Z,11.10
2022-10-20T04:23:43.917Z,10.40
2022-10-20T04:26:12.215Z,7.83
2022-10-20T04:28:40.203Z,7.57
2022-10-20T04:31:08.434Z,8.13
2022-10-20T04:33:37.533Z,10.47
2022-10-20T04:36:07.163Z,7.10
2022-10-20T04:38:35.434Z,13.27
2022-10-20T04:41:05.117Z,11.33
2022-10-20T04:43:33.080Z,11.63
2022-10-20T04:46:03.965Z,10.40
2022-10-20T04:48:34.822Z,12.53
2022-10-20T04:51:05.264Z,8.57
2022-10-20T04:53:32.770Z,6.43
2022-10-20T04:56:00.341Z,9.07
2022-10-20T04:58:28.078Z,10.73
2022-10-20T05:00:55.775Z,9.77
2022-10-20T05:03:23.320Z,10.77
2022-10-20T05:05:50.827Z,8.67
2022-10-20T05:08:19.617Z,8.43
2022-10-20T05:10:47.642Z,10.00
2022-10-20T05:13:15.235Z,7.97
2022-10-20T05:15:42.735Z,9.23
2022-10-20T05:18:10.188Z,9.10
2022-10-20T05:20:45.876Z,8.20
2022-10-20T05:23:20.105Z,9.07
2022-10-20T05:25:47.667Z,9.37
2022-10-20T05:28:15.202Z,6.83
2022-10-20T05:33:15.110Z,7.60
2022-10-20T05:35:42.627Z,7.17
2022-10-20T05:38:10.095Z,9.50
2022-10-20T05:40:39.030Z,9.30
2022-10-20T05:43:06.497Z,11.53
2022-10-20T05:45:33.968Z,7.00
2022-10-20T05:48:01.449Z,7.90
2022-10-20T05:50:28.974Z,10.40
2022-10-20T05:52:56.509Z,6.63
2022-10-20T05:55:24.055Z,11.60
2022-10-20T05:57:52.981Z,10.60
2022-10-20T06:00:29.736Z,7.97
2022-10-20T06:02:57.626Z,5.20
2022-10-20T06:05:25.106Z,11.17
2022-10-20T06:07:54.450Z,7.50
2022-10-20T06:10:21.905Z,8.00
2022-10-20T06:12:49.429Z,6.53
2022-10-20T06:15:18.288Z,11.03
2022-10-20T06:17:47.517Z,7.77
2022-10-20T06:20:15.043Z,9.33
2022-10-20T06:22:42.695Z,7.87
2022-10-20T06:25:10.541Z,10.83
2022-10-20T06:27:38.021Z,6.13
2022-10-20T06:30:06.326Z,9.27
2022-10-20T06:32:35.395Z,8.20
2022-10-20T06:35:03.140Z,8.40
2022-10-20T06:37:30.601Z,7.70
2022-10-20T06:39:58.085Z,9.23
2022-10-20T06:42:25.660Z,10.50
2022-10-20T06:44:53.122Z,13.27
2022-10-20T06:47:20.561Z,7.37
2022-10-20T06:49:50.607Z,12.03
2022-10-20T06:52:18.100Z,8.87
2022-10-20T06:54:45.554Z,12.60
2022-10-20T06:57:13.017Z,6.67
2022-10-20T06:59:40.469Z,9.47
2022-10-20T07:02:09.887Z,9.80
2022-10-20T07:04:37.381Z,9.80
2022-10-20T07:07:06.211Z,10.30
2022-10-20T07:09:33.640Z,13.37
2022-10-20T07:12:01.154Z,11.07
2022-10-20T07:14:31.666Z,6.80
2022-10-20T07:16:59.998Z,13.10
2022-10-20T07:19:27.498Z,10.50
2022-10-20T07:21:54.996Z,11.43
2022-10-20T07:24:23.818Z,9.90
2022-10-20T07:26:51.321Z,8.10
2022-10-20T07:29:19.893Z,8.17
2022-10-20T07:31:49.192Z,8.20
2022-10-20T07:34:25.628Z,10.87
2022-10-20T07:36:53.590Z,11.07
2022-10-20T07:39:21.205Z,9.70
2022-10-20T07:41:50.185Z,11.37
2022-10-20T07:44:17.858Z,10.17
2022-10-20T07:46:45.537Z,11.03
2022-10-20T07:52:00.552Z,15.80
2022-10-20T07:54:28.042Z,10.77
2022-10-20T07:56:56.891Z,11.77
2022-10-20T07:59:24.439Z,14.03
2022-10-20T08:01:54.713Z,10.17
2022-10-20T08:04:25.039Z,10.27
2022-10-20T08:06:52.633Z,13.57
2022-10-20T08:09:20.148Z,10.97
2022-10-20T08:11:51.384Z,10.20
2022-10-20T08:14:23.325Z,13.43
2022-10-20T08:16:59.947Z,8.60
2022-10-20T08:22:08.995Z,10.40
2022-10-20T08:24:36.710Z,11.37
2022-10-20T08:27:04.692Z,13.07
2022-10-20T08:29:33.516Z,8.27
2022-10-20T08:32:01.043Z,9.80
2022-10-20T08:34:28.689Z,16.57
2022-10-20T08:36:56.196Z,13.50
2022-10-20T08:39:24.147Z,10.80
2022-10-20T08:42:09.314Z,11.90
2022-10-20T08:44:39.598Z,8.27
2022-10-20T08:47:16.293Z,12.50
2022-10-20T08:49:45.651Z,11.67
2022-10-20T08:52:15.160Z,8.27
2022-10-20T08:54:42.752Z,9.97
2022-10-20T08:57:20.135Z,9.63
2022-10-20T08:59:53.126Z,16.47
2022-10-20T09:02:20.622Z,9.93
2022-10-20T09:04:51.233Z,15.63
2022-10-20T09:07:24.204Z,16.43
2022-10-20T09:09:52.438Z,16.60
2022-10-20T09:12:21.110Z,14.73
2022-10-20T09:14:49.998Z,12.27
2022-10-20T09:17:19.081Z,11.90
2022-10-20T09:19:49.746Z,14.30
2022-10-20T09:22:18.462Z,16.30
2022-10-20T09:24:46.282Z,12.13
2022-10-20T09:27:23.263Z,11.63
2022-10-20T09:29:52.069Z,8.77
2022-10-20T09:35:29.334Z,12.43
2022-10-20T09:38:01.991Z,14.07
2022-10-20T09:40:29.832Z,11.40
2022-10-20T09:42:58.672Z,13.77
2022-10-20T09:45:29.484Z,15.73
2022-10-20T09:48:01.561Z,9.27
2022-10-20T09:50:31.378Z,11.40
2022-10-20T09:53:00.125Z,10.40
2022-10-20T09:55:30.549Z,8.97
2022-10-20T09:58:00.366Z,13.10
2022-10-20T10:00:37.360Z,9.80
2022-10-20T10:03:20.901Z,10.07
2022-10-20T10:05:52.444Z,9.00
2022-10-20T10:08:21.364Z,12.10
2022-10-20T10:10:59.998Z,13.20
2022-10-20T10:13:29.748Z,11.67
2022-10-20T10:16:07.480Z,9.43
2022-10-20T10:18:35.782Z,10.97
2022-10-20T10:21:05.948Z,11.70
2022-10-20T10:23:36.389Z,14.60
2022-10-20T10:26:04.682Z,11.73
2022-10-20T10:28:35.398Z,10.97
2022-10-20T10:31:10.878Z,12.97
2022-10-20T10:33:38.385Z,17.33
2022-10-20T10:36:08.773Z,10.13
2022-10-20T10:38:37.311Z,12.37
2022-10-20T10:41:19.200Z,17.20
2022-10-20T10:43:52.784Z,10.20
2022-10-20T10:46:27.803Z,11.53
2022-10-20T10:49:05.025Z,11.60
2022-10-20T10:51:42.921Z,10.80
2022-10-20T10:54:24.657Z,14.60
2022-10-20T10:56:56.021Z,13.53
2022-10-20T10:59:24.962Z,12.77
2022-10-20T11:02:10.409Z,17.27
2022-10-20T11:04:58.807Z,13.60
2022-10-20T11:07:32.077Z,14.10
2022-10-20T11:10:05.814Z,15.93
2022-10-20T11:12:45.010Z,12.47
2022-10-20T11:15:23.920Z,15.07
2022-10-20T11:17:57.055Z,12.00
2022-10-20T11:20:31.748Z,15.40
2022-10-20T11:23:36.602Z,12.50
2022-10-20T11:26:13.113Z,15.47
2022-10-20T11:28:45.057Z,16.37
2022-10-20T11:31:22.330Z,15.37
2022-10-20T11:33:55.942Z,16.53
2022-10-20T11:36:25.325Z,15.40
2022-10-20T11:38:55.193Z,17.00
2022-10-20T11:41:25.912Z,16.33
2022-10-20T11:43:57.794Z,15.80
2022-10-20T11:46:31.711Z,13.03
2022-10-20T11:49:03.286Z,16.53
2022-10-20T11:51:44.465Z,18.00
2022-10-20T11:54:26.198Z,20.00
2022-10-20T11:57:13.580Z,15.47
2022-10-20T12:00:04.724Z,21.87
2022-10-20T12:02:54.277Z,20.57
2022-10-20T12:05:43.117Z,18.40
2022-10-20T12:08:47.226Z,24.33
2022-10-20T12:11:18.702Z,21.20
2022-10-20T12:13:56.064Z,21.70
2022-10-20T12:17:05.090Z,20.43
2022-10-20T12:19:33.616Z,21.23
2022-10-20T12:22:04.601Z,19.40
2022-10-20T12:24:35.939Z,22.17
2022-10-20T12:27:20.900Z,18.83
2022-10-20T12:30:15.751Z,22.03
2022-10-20T12:33:00.730Z,17.83
2022-10-20T12:35:44.677Z,27.60
2022-10-20T12:38:17.637Z,18.27
2022-10-20T12:40:48.825Z,22.07
2022-10-20T12:43:28.826Z,17.20
2022-10-20T12:45:59.625Z,23.80
2022-10-20T12:48:27.353Z,22.40
2022-10-20T12:51:03.752Z,19.60
2022-10-20T12:53:32.677Z,24.80
2022-10-20T12:56:02.470Z,22.13
2022-10-20T12:58:31.996Z,20.53
2022-10-20T13:01:17.128Z,21.17
2022-10-20T13:03:46.826Z,22.40
2022-10-20T13:06:40.413Z,22.10
2022-10-20T13:09:23.769Z,25.17
2022-10-20T13:12:01.144Z,17.97
2022-10-20T13:14:42.285Z,27.33
2022-10-20T13:17:20.247Z,22.53
2022-10-20T13:19:50.189Z,22.10
2022-10-20T13:22:39.494Z,19.93
2022-10-20T13:25:15.371Z,20.47
2022-10-20T13:27:42.917Z,18.73
2022-10-20T13:30:12.026Z,21.13
2022-10-20T13:32:53.890Z,20.47
2022-10-20T13:35:34.681Z,19.67
2022-10-20T13:38:07.625Z,18.33
2022-10-20T13:40:43.412Z,17.13
2022-10-20T13:43:22.769Z,24.43
2022-10-20T13:46:17.353Z,17.73
2022-10-20T13:49:00.848Z,22.13
2022-10-20T13:51:30.092Z,17.73
2022-10-20T13:53:59.491Z,21.90
2022-10-20T13:56:35.069Z,23.23
2022-10-20T13:59:05.887Z,19.23
2022-10-20T14:01:35.714Z,16.67
2022-10-20T14:04:03.431Z,18.33
2022-10-20T14:06:36.153Z,18.40
2022-10-20T14:09:12.588Z,14.93
2022-10-20T14:11:41.974Z,16.97
2022-10-20T14:14:14.367Z,18.40
2022-10-20T14:16:48.489Z,16.30
2022-10-20T14:19:16.016Z,18.77
2022-10-20T14:21:45.904Z,20.43
2022-10-20T14:24:16.245Z,17.57
2022-10-20T14:26:45.487Z,15.37
2022-10-20T14:29:13.977Z,20.20
2022-10-20T14:31:41.701Z,19.87
2022-10-20T14:34:19.832Z,16.80
2022-10-20T14:36:47.732Z,21.63
2022-10-20T14:39:23.403Z,15.10
2022-10-20T14:41:52.390Z,19.40
2022-10-20T14:44:31.070Z,15.77
2022-10-20T14:47:04.485Z,16.80
2022-10-20T14:49:34.367Z,17.57
2022-10-20T14:52:03.045Z,20.03
2022-10-20T14:54:37.031Z,20.73
2022-10-20T14:57:38.878Z,19.73
2022-10-20T15:00:30.606Z,23.73
2022-10-20T15:03:02.968Z,14.73
2022-10-20T15:05:40.704Z,17.87
2022-10-20T15:08:11.046Z,14.20
2022-10-20T15:10:39.309Z,14.63
2022-10-20T15:13:23.641Z,11.90
2022-10-20T15:15:54.633Z,18.93
2022-10-20T15:18:24.794Z,15.20
2022-10-20T15:20:52.926Z,15.27
2022-10-20T15:23:21.677Z,18.70
2022-10-20T15:25:51.720Z,15.93
2022-10-20T15:28:28.225Z,17.40
2022-10-20T15:30:55.788Z,15.23
2022-10-20T15:33:23.297Z,19.33
2022-10-20T15:35:52.050Z,18.17
2022-10-20T15:38:19.823Z,20.13
2022-10-20T15:40:47.396Z,20.47
2022-10-20T15:43:16.928Z,21.07
2022-10-20T15:45:47.445Z,16.80
2022-10-20T15:48:14.959Z,22.73
2022-10-20T15:50:42.689Z,16.70
2022-10-20T15:53:12.543Z,18.07
2022-10-20T15:55:43.323Z,18.60
2022-10-20T15:58:10.952Z,25.23
2022-10-20T16:00:39.011Z,28.33
2022-10-20T16:03:08.053Z,18.10
2022-10-20T16:05:35.581Z,23.73
2022-10-20T16:08:03.106Z,20.53
2022-10-20T16:10:30.669Z,24.67
2022-10-20T16:12:58.742Z,17.33
2022-10-20T16:15:30.168Z,19.83
2022-10-20T16:17:58.753Z,25.60
2022-10-20T16:20:27.601Z,22.10
2022-10-20T16:22:55.102Z,19.50
2022-10-20T16:25:22.568Z,21.60
2022-10-20T16:27:50.035Z,21.73
2022-10-20T16:30:17.549Z,22.20
2022-10-20T16:32:45.018Z,25.43
2022-10-20T16:35:12.765Z,28.53
2022-10-20T16:37:41.704Z,22.07
2022-10-20T16:40:10.223Z,23.03
2022-10-20T16:42:37.778Z,20.57
2022-10-20T16:45:06.524Z,24.00
2022-10-20T16:47:34.092Z,26.63
2022-10-20T16:50:01.879Z,24.50
2022-10-20T16:52:29.370Z,30.57
2022-10-20T16:54:58.213Z,27.30
2022-10-20T16:57:26.457Z,22.50
2022-10-20T16:59:54.089Z,21.60
2022-10-20T17:02:23.133Z,23.83
2022-10-20T17:04:50.891Z,22.23
2022-10-20T17:07:18.797Z,20.63
2022-10-20T17:09:46.391Z,20.57
2022-10-20T17:12:15.557Z,25.30
2022-10-20T17:14:43.084Z,21.47
2022-10-20T17:17:11.396Z,19.70
2022-10-20T17:19:40.893Z,24.70
2022-10-20T17:24:38.619Z,25.50
2022-10-20T17:27:06.232Z,23.43
2022-10-20T17:29:35.228Z,18.73
2022-10-20T17:32:02.737Z,25.73
2022-10-20T17:34:30.366Z,20.77
2022-10-20T17:36:58.112Z,27.77
2022-10-20T17:39:25.703Z,25.33
2022-10-20T17:41:53.249Z,18.90
2022-10-20T17:44:20.806Z,27.63
2022-10-20T17:46:49.730Z,23.53
2022-10-20T17:49:17.232Z,20.20
2022-10-20T17:51:45.034Z,22.03
2022-10-20T17:54:12.593Z,22.27
2022-10-20T17:56:40.348Z,27.80
2022-10-20T17:59:09.271Z,25.73
2022-10-20T18:01:38.311Z,22.63
2022-10-20T18:04:09.446Z,17.50
2022-10-20T18:06:37.316Z,25.10
2022-10-20T18:09:06.636Z,20.90
2022-10-20T18:11:35.455Z,18.93
2022-10-20T18:14:03.400Z,22.27
2022-10-20T18:16:33.579Z,22.30
2022-10-20T18:19:01.835Z,27.07
2022-10-20T18:21:31.707Z,18.50
2022-10-20T18:24:02.123Z,21.00
2022-10-20T18:26:31.325Z,23.27
2022-10-20T18:28:59.359Z,23.73
2022-10-20T18:31:30.113Z,21.67
2022-10-20T18:34:02.635Z,23.40
2022-10-20T18:36:39.126Z,21.60
2022-10-20T18:39:10.543Z,22.43
2022-10-20T18:41:40.529Z,19.20
2022-10-20T18:44:11.271Z,19.67
2022-10-20T18:46:39.167Z,21.50
2022-10-20T18:49:07.955Z,20.87
2022-10-20T18:51:37.590Z,22.57
2022-10-20T18:54:06.354Z,19.50
2022-10-20T18:56:34.391Z,25.20
2022-10-20T18:59:03.774Z,22.07
2022-10-20T19:01:33.109Z,22.43
2022-10-20T19:04:01.490Z,18.07
2022-10-20T19:06:31.076Z,19.20
2022-10-20T19:09:01.438Z,28.43
2022-10-20T19:11:31.361Z,20.93
2022-10-20T19:14:00.005Z,20.40
2022-10-20T19:16:29.441Z,24.20
2022-10-20T19:18:57.975Z,21.83
2022-10-20T19:21:26.524Z,22.20
2022-10-20T19:23:58.169Z,17.83
2022-10-20T19:26:28.541Z,20.77
2022-10-20T19:28:59.614Z,25.40
2022-10-20T19:31:29.259Z,19.33
2022-10-20T19:33:59.308Z,16.07
2022-10-20T19:36:27.746Z,22.20
2022-10-20T19:38:55.794Z,21.20
2022-10-20T19:41:23.852Z,22.53
2022-10-20T19:43:53.281Z,17.53
2022-10-20T19:46:22.811Z,24.00
2022-10-20T19:48:50.683Z,20.23
2022-10-20T19:51:19.812Z,21.60
2022-10-20T19:53:48.672Z,20.27
2022-10-20T19:56:16.869Z,18.43
2022-10-20T19:58:46.607Z,25.37
2022-10-20T20:01:16.259Z,17.33
2022-10-20T20:03:44.946Z,21.63
2022-10-20T20:06:16.484Z,23.67
2022-10-20T20:08:44.976Z,22.10
2022-10-20T20:11:21.544Z,19.40
2022-10-20T20:13:49.215Z,16.57
2022-10-20T20:16:18.279Z,23.13
2022-10-20T20:18:45.832Z,20.50
2022-10-20T20:21:13.613Z,20.70
2022-10-20T20:23:58.355Z,19.07
2022-10-20T20:26:27.421Z,16.80
2022-10-20T20:28:55.992Z,20.70
2022-10-20T20:31:25.873Z,19.17
2022-10-20T20:33:54.112Z,19.63
2022-10-20T20:36:21.716Z,21.90
2022-10-20T20:38:51.565Z,19.27
2022-10-20T20:41:21.672Z,21.83
2022-10-20T20:43:49.105Z,17.77
2022-10-20T20:46:18.246Z,21.80
2022-10-20T20:48:47.085Z,17.17
2022-10-20T20:51:15.552Z,21.53
2022-10-20T20:53:43.106Z,20.40
2022-10-20T20:56:11.917Z,19.37
2022-10-20T20:58:40.518Z,20.37
2022-10-20T21:01:10.119Z,24.10
2022-10-20T21:03:38.051Z,17.47
2022-10-20T21:06:08.657Z,19.27
2022-10-20T21:08:36.711Z,18.23
2022-10-20T21:11:08.253Z,20.30
2022-10-20T21:13:37.017Z,18.47
2022-10-20T21:16:09.559Z,28.83
2022-10-20T21:18:37.477Z,19.10
2022-10-20T21:23:44.424Z,16.83
2022-10-20T21:26:13.292Z,18.87
2022-10-20T21:28:41.277Z,20.50
2022-10-20T21:31:10.017Z,21.43
2022-10-20T21:33:38.628Z,20.20
2022-10-20T21:36:08.731Z,21.20
2022-10-20T21:38:38.837Z,19.03
2022-10-20T21:41:07.425Z,23.67
2022-10-20T21:43:35.698Z,18.97
2022-10-20T21:46:11.759Z,19.27
2022-10-20T21:48:39.531Z,19.03
2022-10-20T21:51:08.687Z,24.30
2022-10-20T21:53:37.582Z,25.53
2022-10-20T21:56:05.453Z,21.63
2022-10-20T21:58:33.415Z,18.33
2022-10-20T22:01:01.230Z,20.10
2022-10-20T22:03:28.777Z,21.50
2022-10-20T22:05:56.370Z,24.30
2022-10-20T22:08:23.853Z,20.30
2022-10-20T22:10:52.661Z,24.80
2022-10-20T22:13:20.177Z,17.73
2022-10-20T22:15:47.738Z,20.93
2022-10-20T22:18:15.199Z,21.53
2022-10-20T22:20:42.698Z,19.53
2022-10-20T22:23:10.245Z,20.43
2022-10-20T22:25:38.320Z,22.30
2022-10-20T22:28:07.565Z,20.37
2022-10-20T22:30:35.585Z,24.93
2022-10-20T22:33:03.604Z,24.83
2022-10-20T22:35:31.143Z,22.77
2022-10-20T22:37:58.718Z,20.43
2022-10-20T22:40:26.216Z,23.00
2022-10-20T22:42:53.701Z,25.03
2022-10-20T22:45:22.514Z,20.37
2022-10-20T22:47:50.017Z,22.23
2022-10-20T22:50:17.605Z,20.67
2022-10-20T22:52:45.715Z,27.60
2022-10-20T22:55:13.245Z,22.37
2022-10-20T22:57:40.779Z,26.27
2022-10-20T23:00:09.278Z,29.70
2022-10-20T23:02:38.313Z,26.47
2022-10-20T23:05:06.334Z,26.80
2022-10-20T23:07:35.566Z,28.10
2022-10-20T23:10:04.332Z,28.73
2022-10-20T23:12:32.305Z,22.63
2022-10-20T23:14:59.846Z,26.20
2022-10-20T23:17:27.340Z,23.80
2022-10-20T23:19:56.150Z,28.27
2022-10-20T23:22:23.751Z,27.57
2022-10-20T23:24:51.253Z,24.70
2022-10-20T23:27:18.751Z,22.67
2022-10-20T23:29:46.266Z,29.50
2022-10-20T23:32:13.765Z,20.93
2022-10-20T23:34:41.231Z,26.77
2022-10-20T23:37:10.058Z,28.60
2022-10-20T23:39:37.546Z,25.63
2022-10-20T23:42:07.361Z,24.83
2022-10-20T23:44:35.029Z,25.40
2022-10-20T23:47:02.497Z,23.70
2022-10-20T23:49:29.968Z,21.40
2022-10-20T23:51:57.453Z,26.60
2022-10-20T23:54:26.306Z,26.90
2022-10-20T23:56:53.792Z,21.23
2022-10-20T23:59:21.293Z,20.63
